Terminal Aerodrome Forecast
Issued by NWS Grand Junction, CO

Home | Current Version | Previous Version | Text Only | Print | Product List | Glossary On
Versions: 1 2 3 4 5 6 7 8 9 10 11 12 13 14 15 16 17 18 19 20 21 22 23
000
FTUS45 KGJT 291726
TAFGJT
TAF
KGJT 291726Z 2918/3018 04012G20KT P6SM FEW250
     FM291900 05008G15KT P6SM FEW250
     FM292100 33007KT P6SM FEW250
     FM300300 06007KT P6SM FEW250
     FM300800 12010KT P6SM FEW250=

USA.gov is the U.S. government's official web portal to all federal, state and local government web resources and services.